»·PEaware :: DAL494 KSLC-KLAX

DAL494 :: KSLC-KLAX

FLIGHT INFORMATION

Flight Status: Arrived
Operator:
Delta Air Lines
More flights by this operator :: More flights under this callsign
Pilot: John L. (29598)
Aircraft: AIRBUS A319
(A319)
More flights by this aircraft type
Origin: KSLC Salt Lake City Intl
United States
Destination: KLAX Los Angeles Intl
United States
More flights between these airports :: More routes between these airports
Route: ZIONZ1 EHK LAKRR Q88 HAKMN ANJLL4
File this flight plan on PilotEdge
Remarks:
Altitude:
(Current/Filed)
36,000ft
Speed:
(Current/Filed)
460kts
Departed: 28-Oct-20 07:45 PM
Arrived: 28-Oct-20 09:13 PM
Distance/Time
Traveled:
512nm/1:28
Distance/Time
To Go:
Arrived

Flight Plot

Page will automatically refresh every two minutes.

Flight plan parsing failed; only flown route is shown


Map Options




Map Legend


Flown Route
Filed Route
Departure Airport
Arrival Airport
Navaid (VOR, NDB)
Fix

Horizontal Profiles

Position Reports

Time Latitude Longitude Heading Altitude Ground
Speed
28-Oct-20 19:09 40.788455 -111.985359 72 4235ft 0kts
28-Oct-20 19:10 40.788455 -111.985359 72 4235ft 0kts
28-Oct-20 19:11 40.788455 -111.985359 72 4235ft 0kts
28-Oct-20 19:12 40.788455 -111.985359 72 4235ft 0kts
28-Oct-20 19:13 40.788455 -111.985359 72 4235ft 0kts
28-Oct-20 19:14 40.788455 -111.985359 72 4235ft 0kts
28-Oct-20 19:15 40.788455 -111.985359 72 4235ft 0kts
28-Oct-20 19:16 40.788455 -111.985359 72 4235ft 0kts
28-Oct-20 19:17 40.788455 -111.985359 72 4235ft 0kts
28-Oct-20 19:18 40.788455 -111.985359 72 4235ft 0kts
28-Oct-20 19:19 40.788455 -111.985359 72 4235ft 0kts
28-Oct-20 19:20 40.788455 -111.985359 72 4235ft 0kts
28-Oct-20 19:21 40.788455 -111.985359 72 4235ft 0kts
28-Oct-20 19:22 40.788455 -111.985359 72 4235ft 0kts
28-Oct-20 19:23 40.788455 -111.985359 72 4235ft 0kts
28-Oct-20 19:24 40.788455 -111.985359 72 4235ft 0kts
28-Oct-20 19:25 40.788455 -111.985359 72 4235ft 0kts
28-Oct-20 19:26 40.788455 -111.985359 72 4235ft 0kts
28-Oct-20 19:27 40.788455 -111.985359 72 4235ft 0kts
28-Oct-20 19:28 40.788373 -111.985695 72 4235ft 2kts
28-Oct-20 19:29 40.788026 -111.986232 19 4235ft 2kts
28-Oct-20 19:30 40.787596 -111.986210 337 4235ft 0kts
28-Oct-20 19:31 40.787596 -111.986211 337 4235ft 0kts
28-Oct-20 19:32 40.788084 -111.986494 327 4235ft 9kts
28-Oct-20 19:33 40.787745 -111.990676 264 4235ft 14kts
28-Oct-20 19:34 40.787608 -111.992753 264 4235ft 0kts
28-Oct-20 19:35 40.787608 -111.992753 264 4235ft 0kts
28-Oct-20 19:36 40.787608 -111.992753 264 4235ft 0kts
28-Oct-20 19:37 40.787590 -111.992986 264 4235ft 4kts
28-Oct-20 19:38 40.790661 -111.994154 354 4235ft 17kts
28-Oct-20 19:39 40.795733 -111.994750 355 4235ft 19kts
28-Oct-20 19:40 40.801126 -111.995372 354 4235ft 19kts
28-Oct-20 19:41 40.806680 -111.996017 355 4235ft 20kts
28-Oct-20 19:42 40.807705 -111.997716 264 4235ft 0kts
28-Oct-20 19:43 40.807705 -111.997716 264 4235ft 0kts
28-Oct-20 19:44 40.803853 -111.998824 174 4236ft 85kts
28-Oct-20 19:45 40.754510 -111.991597 170 6039ft 230kts
28-Oct-20 19:46 40.684600 -111.977510 171 8930ft 269kts
28-Oct-20 19:47 40.608861 -111.962994 171 9974ft 277kts
28-Oct-20 19:48 40.530226 -111.955877 176 10841ft 308kts
28-Oct-20 19:49 40.434228 -111.949831 176 12372ft 383kts
28-Oct-20 19:50 40.319387 -111.941879 177 14353ft 431kts
28-Oct-20 19:51 40.198328 -111.949251 187 17069ft 445kts
28-Oct-20 19:52 40.074078 -111.968561 187 19453ft 458kts
28-Oct-20 19:53 39.946006 -111.987205 187 21545ft 470kts
28-Oct-20 19:54 39.814435 -112.006306 187 23378ft 481kts
28-Oct-20 19:55 39.680928 -112.025659 187 25179ft 484kts
28-Oct-20 19:56 39.548304 -112.044860 187 27222ft 478kts
28-Oct-20 19:57 39.417094 -112.063718 187 29052ft 473kts
28-Oct-20 19:58 39.287270 -112.082119 187 30706ft 468kts
28-Oct-20 19:59 39.159936 -112.107715 196 32172ft 462kts
28-Oct-20 20:01 39.042799 -112.170250 210 33486ft 456kts
28-Oct-20 20:02 38.933329 -112.250292 210 34709ft 452kts
28-Oct-20 20:03 38.824581 -112.329010 210 35771ft 448kts
28-Oct-20 20:04 38.716282 -112.407153 210 36273ft 447kts
28-Oct-20 20:05 38.608174 -112.485025 210 36268ft 447kts
28-Oct-20 20:06 38.499931 -112.562744 210 36261ft 447kts
28-Oct-20 20:07 38.391331 -112.640446 210 36261ft 447kts
28-Oct-20 20:08 38.283089 -112.718032 209 36261ft 448kts
28-Oct-20 20:09 38.174290 -112.795433 209 36261ft 448kts
28-Oct-20 20:10 38.065839 -112.872232 209 36261ft 447kts
28-Oct-20 20:11 37.957679 -112.948530 209 36267ft 445kts
28-Oct-20 20:12 37.849651 -113.024331 209 36277ft 443kts
28-Oct-20 20:13 37.742518 -113.100418 210 36278ft 443kts
28-Oct-20 20:14 37.636008 -113.178649 210 36278ft 443kts
28-Oct-20 20:14 37.547452 -113.243339 210 36278ft 443kts
28-Oct-20 20:16 37.423013 -113.333875 210 36268ft 443kts
28-Oct-20 20:16 37.334079 -113.398375 210 36198ft 443kts
28-Oct-20 20:18 37.209810 -113.488196 210 36123ft 444kts
28-Oct-20 20:18 37.120651 -113.552424 210 36116ft 444kts
28-Oct-20 20:20 36.995867 -113.641932 211 36115ft 445kts
28-Oct-20 20:20 36.906055 -113.706599 211 36115ft 449kts
28-Oct-20 20:21 36.797715 -113.783806 210 36115ft 449kts
28-Oct-20 20:22 36.689618 -113.860617 210 36115ft 449kts
28-Oct-20 20:23 36.581236 -113.937438 210 36115ft 449kts
28-Oct-20 20:24 36.472904 -114.013983 210 36115ft 449kts
28-Oct-20 20:25 36.364625 -114.090244 210 36109ft 449kts
28-Oct-20 20:26 36.256109 -114.166428 210 36099ft 449kts
28-Oct-20 20:27 36.147979 -114.242708 213 36089ft 448kts
28-Oct-20 20:28 36.050126 -114.337049 225 36087ft 446kts
28-Oct-20 20:29 35.966973 -114.449916 229 36087ft 446kts
28-Oct-20 20:30 35.884414 -114.563916 229 36087ft 445kts
28-Oct-20 20:31 35.801818 -114.677142 229 36087ft 446kts
28-Oct-20 20:32 35.719257 -114.790736 229 36087ft 446kts
28-Oct-20 20:33 35.636373 -114.904119 229 36086ft 446kts
28-Oct-20 20:34 35.553648 -115.017175 229 36086ft 445kts
28-Oct-20 20:35 35.470266 -115.129166 228 36092ft 444kts
28-Oct-20 20:36 35.385744 -115.239150 228 36099ft 443kts
28-Oct-20 20:37 35.301627 -115.348584 228 36100ft 443kts
28-Oct-20 20:38 35.217264 -115.458025 228 36098ft 443kts
28-Oct-20 20:39 35.132664 -115.567424 228 36099ft 443kts
28-Oct-20 20:40 35.047809 -115.676178 227 36115ft 443kts
28-Oct-20 20:41 34.962870 -115.784827 227 36139ft 442kts
28-Oct-20 20:42 34.877978 -115.892647 227 36142ft 442kts
28-Oct-20 20:43 34.792699 -116.000395 228 36150ft 442kts
28-Oct-20 20:44 34.707892 -116.108207 228 36093ft 440kts
28-Oct-20 20:45 34.625187 -116.213379 228 34566ft 433kts
28-Oct-20 20:46 34.541847 -116.318998 228 31690ft 438kts
28-Oct-20 20:47 34.456932 -116.426329 228 28475ft 445kts
28-Oct-20 20:48 34.388555 -116.544697 246 26240ft 423kts
28-Oct-20 20:49 34.337502 -116.669507 246 24601ft 395kts
28-Oct-20 20:50 34.290524 -116.786460 247 22792ft 382kts
28-Oct-20 20:51 34.244510 -116.900637 247 20963ft 374kts
28-Oct-20 20:52 34.202830 -117.013865 255 19112ft 366kts
28-Oct-20 20:53 34.171411 -117.130256 255 17297ft 355kts
28-Oct-20 20:54 34.142220 -117.236827 254 15592ft 330kts
28-Oct-20 20:55 34.112984 -117.342908 254 14200ft 331kts
28-Oct-20 20:56 34.086667 -117.444996 256 12730ft 315kts
28-Oct-20 20:57 34.061676 -117.544040 255 11478ft 286kts
28-Oct-20 20:58 34.040627 -117.626275 256 10691ft 242kts
28-Oct-20 20:59 34.022114 -117.703038 262 9952ft 235kts
28-Oct-20 21:00 34.014298 -117.779678 267 8901ft 226kts
28-Oct-20 21:01 34.007072 -117.853934 267 7868ft 220kts
28-Oct-20 21:02 34.000015 -117.926343 267 6863ft 215kts
28-Oct-20 21:03 33.993195 -117.995274 266 5980ft 192kts
28-Oct-20 21:04 33.987563 -118.057995 267 5049ft 186kts
28-Oct-20 21:05 33.981558 -118.120004 265 4198ft 186kts
28-Oct-20 21:06 33.975353 -118.179311 266 3748ft 158kts
28-Oct-20 21:07 33.970413 -118.226318 265 2981ft 140kts
28-Oct-20 21:08 33.965522 -118.272523 264 2255ft 137kts
28-Oct-20 21:09 33.960829 -118.317858 264 1532ft 135kts
28-Oct-20 21:10 33.956198 -118.362475 264 798ft 132kts
28-Oct-20 21:11 33.951632 -118.406446 263 136ft 126kts
28-Oct-20 21:12 33.948797 -118.426413 230 119ft 18kts
28-Oct-20 21:13 33.948570 -118.426721 224 119ft 0kts
28-Oct-20 21:14 33.946536 -118.427782 174 114ft 0kts
28-Oct-20 21:15 33.946541 -118.425187 82 118ft 15kts
28-Oct-20 21:16 33.947167 -118.419106 83 124ft 21kts
28-Oct-20 21:17 33.948035 -118.411968 83 127ft 21kts
28-Oct-20 21:18 33.948285 -118.405929 167 126ft 10kts
28-Oct-20 21:19 33.946188 -118.404984 85 125ft 5kts

Navigation Log

Ident Type
Flight plan parsing failed, navigation log unavailable